Abrahamtelep, Hungary

9:53 PM CEST on June 28, 2017 (GMT +0200)
Szolnok | | Change Station

Elev 269 ft 47.18 °N, 20.19 °E | Updated 14 minutes ago

Rain
Rain
84.6 °F
Feels Like 87 °F
N
8.1
Wind Variable Wind from ENE
Gusts 13.0 mph

Today
High -- | Low -- °F
--% Chance of Precip.
Yesterday
High -- | Low -- °F
Precip. -- in
Pressure 29.68 in
Visibility 6.2 miles
Clouds Scattered Clouds 3000 ft
Mostly Cloudy 5300 ft
Heat Index 87 °F
Dew Point 66 °F
Humidity 53%
Rainfall 0.00 in
Snow Depth Not available.
4:46 AM 8:40 PM
Waxing Crescent, 28% visible
METAR LHBP 281930Z 22014KT 9999 -TSRA SCT030CB BKN053 21/21 Q1005 RETSRA BECMG SHRA
Pressure 29.68 in
Visibility 6.2 miles
Clouds Scattered Clouds 3000 ft
Mostly Cloudy 5300 ft
Heat Index 87 °F
Dew Point 66 °F
Humidity 53%
Rainfall 0.00 in
Snow Depth Not available.
4:46 AM 8:40 PM
Waxing Crescent, 28% visible
METAR LHBP 281930Z 22014KT 9999 -TSRA SCT030CB BKN053 21/21 Q1005 RETSRA BECMG SHRA

Get Severe Weather Alerts

Thanks for signing up!

Be on the lookout for a verification email in your inbox.

You'll start receiving the daily forecast at 6 AM.

×

10-Day Weather Forecast

×

Almanac

Astronomy

Jun. 28, 2017 Rise Set
Actual Time
Civil Twilight
Nautical Twilight
Astronomical Twilight
Moon
Length of Visible Light
Length of Day
Tomorrow will be .
, % of the Moon is Illuminated

Today's Extremes

Country Highs Country Lows

Community

WunderPhotos

Category 6

Welcome to Category 6. This is the collective home for Weather Underground's featured writeups by Dr. Jeff Masters (right), Bob Henson (left), Chris Burt, and other regular contributors.

Nearby

Air Quality

  Air Quality AQ Index Pollutant
Not available.

Snow Depth

Station Depth Elevation

Earthquake Activity

City Distance Mag. Time & Date
Minimum magnitude displayed is 2.5.

Coastal Water Temperatures

Place Temperature

Stations

Nearby Weather Stations

Station Location Temp. Windchill Dew Point Humidity Wind Precip. Elev Updated Type